Terminal Aerodrome Forecast
Issued by NWS Quad Cities IA IL

Current Version | Previous Version | Text Only | Print | Product List | Glossary On
Versions: 1 2 3 4 5 6 7 8 9 10 11 12 13 14 15 16 17 18 19 20 21 22 23 24 25 26 27
000
FTUS43 KDVN 300904 AAA
TAFDBQ
TAF AMD
KDBQ 300904Z 3009/0106 30007KT P6SM SKC
      TEMPO 3011/3013 5SM BR SKC
     FM301400 35010KT P6SM BKN050
     FM010100 36004KT P6SM SCT150=

USA.gov is the U.S. government's official web portal to all federal, state and local government web resources and services.